Elm Creek, NE (68836)

6:24 AM CDT on July 13, 2014 (GMT -0500)
SW Kearney (KNEKEARN4) Elev 2159 ft | 40.68 °N, 99.10 °W | Change Station

Current weather conditions updated 6 seconds ago

Clear
Clear
64.0 °F
Feels Like 64.0 °F
N
2.0
Wind Variable Wind from West
Gusts 4.0 mph

Today is forecast to be Warmer than yesterday.

Today
High -- | Low -- °F
--% Chance of Precip.
Yesterday
High -- | Low -- °F
Precip. -- in
6:17 AM 9:08 PM
Full, 98% visible
Pressure 30.16 in
Visibility 2.5 miles
Clouds Clear
Dew Point 62 °F
Humidity 95%
Rainfall 0.00 in
Snow Depth Not available.
UV 0 out of 12
Pollen 4.40 out of 12
Air Quality Not available.
Flu Activity Sporadic
METAR KHDE 131115Z AUTO 28005KT 2 1/2SM BR CLR 18/17 A3016 RMK AO2 T01800172

More Conditions Fewer Conditions

Pressure 30.16 in
Visibility 2.5 miles
Clouds Clear
Dew Point 62 °F
Humidity 95%
Rainfall 0.00 in
Snow Depth Not available.
UV 0 out of 12
Pollen 4.40 out of 12
Air Quality Not available.
Flu Activity Sporadic
METAR KHDE 131115Z AUTO 28005KT 2 1/2SM BR CLR 18/17 A3016 RMK AO2 T01800172

More Conditions Fewer Conditions

10-Day Weather Forecast

Almanac

Astronomy

Jul. 13, 2014 Rise Set
Actual Time 6:17 AM CDT 9:08 PM CDT
Civil Twilight 5:45 AM CDT 9:40 PM CDT
Nautical Twilight 5:04 AM CDT 10:21 PM CDT
Astronomical Twilight 4:16 AM CDT 11:08 PM CDT
Moon 9:56 PM CDT 7:50 AM CDT
Length of Visible Light 15h 55m
Length of Day
14h 50m
Tomorrow will be 1m 19s shorter.
Full, 98% of the Moon is Illuminated
Today
Full
Jul 18
Last Quarter
Jul 26
New
Aug 3
First Quarter
Aug 10
Full

Today's Extremes

State Highs State Lows

Community

WunderPhotos

Upload Photos

1,733,154 photos uploaded!

Nearby

Snow Depth

Station Depth Elevation
No new snow has been reported.

Earthquake Activity

City Distance Mag. Time & Date
No recent earthquake activity has been reported nearby.
Minimum magnitude displayed is 2.5.

Coastal Water Temperatures

Place Temperature
No Stations Reporting

Nearby Weather Stations

Station Location Temp. Dew Point Humidity Wind Precip. Elev Updated Type
MesoWest OVERT1 , Overton, NE 59 °F - - North  at  - 0.00 in / hr 2303 ft 5:00 AM CDT MADIS
MesoWest ODESS1 , Odessa, NE 62 °F - - North  at  - 0.00 in / hr 2215 ft 5:00 AM CDT MADIS
SW Kearney, Kearney, NE 64.0 °F 62 °F 95% West  at  2.0 mph 0.00 in / hr 2159 ft 6:24 AM CDT Rapid Fire
Regency, Kearney, NE 64.2 °F 63 °F 95% NNE  at  1.3 mph 0.00 in / hr 2224 ft 6:24 AM CDT Rapid Fire
Target Hill, Kearney, NE 63.5 °F 6 °F 10% West  at  2.9 mph 0.00 in / hr 2130 ft 6:24 AM CDT Rapid Fire
MesoWest OPTIC1 , Kearney, NE 62 °F - - North  at  - 0.00 in / hr 2119 ft 5:05 AM CDT MADIS
MesoWest LEXNG1 , Lexington, NE 62 °F - - North  at  - 0.00 in / hr 2411 ft 5:00 AM CDT MADIS

Show More Stations Show Fewer Stations